createdAt,value
2018-04-17T00:00:29.292Z,0
2018-04-17T00:01:29.550Z,0
2018-04-17T00:02:29.527Z,0
2018-04-17T00:03:29.276Z,0
2018-04-17T00:04:28.751Z,0
2018-04-17T00:05:29.256Z,0
2018-04-17T00:06:29.496Z,0
2018-04-17T00:07:29.486Z,0
2018-04-17T00:08:29.277Z,0
2018-04-17T00:09:28.974Z,0
2018-04-17T00:10:29.220Z,0
2018-04-17T00:11:29.461Z,0
2018-04-17T00:12:29.450Z,0
2018-04-17T00:13:29.460Z,0
2018-04-17T00:14:28.679Z,0
2018-04-17T00:15:29.437Z,0
2018-04-17T00:16:29.204Z,0
2018-04-17T00:17:28.939Z,0
2018-04-17T00:18:28.903Z,0
2018-04-17T00:19:28.903Z,0
2018-04-17T00:20:28.905Z,0
2018-04-17T00:21:29.136Z,0
2018-04-17T00:22:28.873Z,0
2018-04-17T00:23:29.124Z,0
2018-04-17T00:24:29.364Z,0
2018-04-17T00:25:29.358Z,0
2018-04-17T00:26:29.352Z,0
2018-04-17T00:27:29.092Z,0
2018-04-17T00:28:29.331Z,0
2018-04-17T00:29:29.076Z,0
2018-04-17T00:30:29.079Z,0
2018-04-17T00:31:28.822Z,0
2018-04-17T00:32:28.875Z,0
2018-04-17T00:33:28.539Z,0
2018-04-17T00:34:28.791Z,0
2018-04-17T00:35:29.031Z,0
2018-04-17T00:36:29.029Z,0
2018-04-17T00:37:29.283Z,0
2018-04-17T00:38:29.012Z,0
2018-04-17T00:39:28.748Z,0
2018-04-17T00:40:29.249Z,0
2018-04-17T00:41:29.248Z,0
2018-04-17T00:42:28.985Z,0
2018-04-17T00:43:29.229Z,0
2018-04-17T00:44:28.724Z,0
2018-04-17T00:45:28.966Z,0
2018-04-17T00:46:28.705Z,0
2018-04-17T00:47:28.692Z,0
2018-04-17T00:48:29.196Z,0
2018-04-17T00:49:28.683Z,0
2018-04-17T00:50:29.181Z,0
2018-04-17T00:51:29.173Z,0
2018-04-17T00:52:28.916Z,0
2018-04-17T00:53:28.399Z,0
2018-04-17T00:54:28.662Z,0
2018-04-17T00:55:29.147Z,0
2018-04-17T00:56:29.139Z,0
2018-04-17T00:57:29.138Z,0
2018-04-17T00:58:29.142Z,0
2018-04-17T00:59:28.880Z,0
2018-04-17T01:00:29.120Z,0
2018-04-17T01:01:29.114Z,0
2018-04-17T01:02:28.848Z,0
2018-04-17T01:03:29.092Z,0
2018-04-17T01:04:29.083Z,0
2018-04-17T01:05:29.080Z,0
2018-04-17T01:06:29.078Z,0
2018-04-17T01:07:28.808Z,0
2018-04-17T01:08:28.546Z,0
2018-04-17T01:09:29.054Z,0
2018-04-17T01:10:29.045Z,0
2018-04-17T01:11:29.042Z,0
2018-04-17T01:12:29.024Z,0
2018-04-17T01:13:29.017Z,0
2018-04-17T01:14:28.507Z,0
2018-04-17T01:15:29.008Z,0
2018-04-17T01:16:29.001Z,0
2018-04-17T01:17:28.486Z,0
2018-04-17T01:18:28.477Z,0
2018-04-17T01:19:28.727Z,0
2018-04-17T01:20:28.973Z,0
2018-04-17T01:21:28.755Z,0
2018-04-17T01:22:28.959Z,0
2018-04-17T01:23:28.698Z,0
2018-04-17T01:24:28.696Z,0
2018-04-17T01:25:28.725Z,0
2018-04-17T01:26:28.933Z,0
2018-04-17T01:27:28.923Z,0
2018-04-17T01:28:28.913Z,0
2018-04-17T01:29:28.648Z,0
2018-04-17T01:30:28.898Z,0
2018-04-17T01:31:28.384Z,0
2018-04-17T01:32:28.643Z,0
2018-04-17T01:33:28.874Z,0
2018-04-17T01:34:28.607Z,0
2018-04-17T01:35:28.612Z,0
2018-04-17T01:36:28.880Z,0
2018-04-17T01:37:28.844Z,0
2018-04-17T01:38:28.834Z,0
2018-04-17T01:39:28.822Z,0
2018-04-17T01:40:28.829Z,0
2018-04-17T01:41:28.811Z,0
2018-04-17T01:42:28.291Z,0
2018-04-17T01:43:28.283Z,0
2018-04-17T01:44:28.278Z,0
2018-04-17T01:45:28.519Z,0
2018-04-17T01:46:28.562Z,0
2018-04-17T01:47:28.504Z,0
2018-04-17T01:48:28.760Z,0
2018-04-17T01:49:28.238Z,0
2018-04-17T01:50:28.736Z,0
2018-04-17T01:51:28.477Z,0
2018-04-17T01:52:28.720Z,0
2018-04-17T01:53:28.470Z,0
2018-04-17T01:54:28.204Z,0
2018-04-17T01:55:28.457Z,0
2018-04-17T01:56:28.436Z,0
2018-04-17T01:57:28.428Z,0
2018-04-17T01:58:27.915Z,0
2018-04-17T01:59:28.164Z,0
2018-04-17T02:00:28.681Z,0
2018-04-17T02:01:28.406Z,0
2018-04-17T02:02:28.154Z,0
2018-04-17T02:03:28.383Z,0
2018-04-17T02:04:28.624Z,0
2018-04-17T02:05:28.674Z,0
2018-04-17T02:06:28.612Z,0
2018-04-17T02:07:28.615Z,0
2018-04-17T02:08:28.366Z,0
2018-04-17T02:09:28.333Z,0
2018-04-17T02:10:28.322Z,0
2018-04-17T02:11:28.573Z,0
2018-04-17T02:12:28.314Z,0
2018-04-17T02:13:28.296Z,0
2018-04-17T02:14:28.346Z,0
2018-04-17T02:15:28.284Z,0
2018-04-17T02:16:28.532Z,0
2018-04-17T02:17:28.011Z,0
2018-04-17T02:18:28.263Z,0
2018-04-17T02:19:28.248Z,0
2018-04-17T02:20:28.500Z,0
2018-04-17T02:21:28.251Z,0
2018-04-17T02:22:27.969Z,0
2018-04-17T02:23:28.225Z,0
2018-04-17T02:24:27.700Z,0
2018-04-17T02:25:28.451Z,0
2018-04-17T02:26:28.204Z,0
2018-04-17T02:27:28.186Z,0
2018-04-17T02:28:27.918Z,0
2018-04-17T02:29:28.430Z,0
2018-04-17T02:30:28.416Z,0
2018-04-17T02:31:28.156Z,0
2018-04-17T02:32:28.144Z,0
2018-04-17T02:33:28.394Z,0
2018-04-17T02:34:28.385Z,0
2018-04-17T02:35:28.363Z,0
2018-04-17T02:36:28.356Z,0
2018-04-17T02:37:28.356Z,0
2018-04-17T02:38:28.112Z,0
2018-04-17T02:39:28.096Z,0
2018-04-17T02:40:28.074Z,0
2018-04-17T02:41:28.060Z,0
2018-04-17T02:42:28.314Z,0
2018-04-17T02:43:28.308Z,0
2018-04-17T02:44:28.305Z,0
2018-04-17T02:45:28.284Z,0
2018-04-17T02:46:28.023Z,0
2018-04-17T02:47:27.781Z,0
2018-04-17T02:48:28.254Z,0
2018-04-17T02:49:28.256Z,0
2018-04-17T02:50:28.005Z,0
2018-04-17T02:51:27.996Z,0
2018-04-17T02:52:28.224Z,0
2018-04-17T02:53:27.973Z,0
2018-04-17T02:54:27.970Z,0
2018-04-17T02:55:28.190Z,0
2018-04-17T02:56:28.192Z,0
2018-04-17T02:57:28.185Z,0
2018-04-17T02:58:27.659Z,0
2018-04-17T02:59:27.701Z,0
2018-04-17T03:00:27.893Z,0
2018-04-17T03:01:27.882Z,0
2018-04-17T03:02:27.891Z,0
2018-04-17T03:03:27.359Z,0
2018-04-17T03:04:28.199Z,0
2018-04-17T03:05:27.348Z,0
2018-04-17T03:06:28.114Z,0
2018-04-17T03:07:27.833Z,0
2018-04-17T03:08:28.073Z,0
2018-04-17T03:09:27.820Z,0
2018-04-17T03:10:28.063Z,0
2018-04-17T03:11:28.067Z,0
2018-04-17T03:12:27.785Z,0
2018-04-17T03:13:28.030Z,0
2018-04-17T03:14:27.770Z,0
2018-04-17T03:15:28.010Z,0
2018-04-17T03:16:27.749Z,0
2018-04-17T03:17:27.739Z,0
2018-04-17T03:18:27.732Z,0
2018-04-17T03:19:27.739Z,0
2018-04-17T03:20:27.213Z,0
2018-04-17T03:21:27.962Z,0
2018-04-17T03:22:27.697Z,0
2018-04-17T03:23:27.937Z,0
2018-04-17T03:24:27.680Z,0
2018-04-17T03:25:27.917Z,0
2018-04-17T03:26:27.927Z,0
2018-04-17T03:27:27.664Z,0
2018-04-17T03:28:27.646Z,0
2018-04-17T03:29:27.896Z,0
2018-04-17T03:30:27.374Z,0
2018-04-17T03:31:27.873Z,0
2018-04-17T03:32:27.862Z,0
2018-04-17T03:33:27.854Z,0
2018-04-17T03:34:27.852Z,0
2018-04-17T03:35:27.840Z,0
2018-04-17T03:36:27.829Z,0
2018-04-17T03:37:27.308Z,0
2018-04-17T03:38:27.821Z,0
2018-04-17T03:39:27.573Z,0
2018-04-17T03:40:27.787Z,0
2018-04-17T03:41:27.778Z,0
2018-04-17T03:42:27.534Z,0
2018-04-17T03:43:27.761Z,0
2018-04-17T03:44:27.813Z,0
2018-04-17T03:45:27.745Z,0
2018-04-17T03:46:27.485Z,0
2018-04-17T03:47:27.720Z,0
2018-04-17T03:48:27.715Z,0
2018-04-17T03:49:27.468Z,0
2018-04-17T03:50:27.694Z,0
2018-04-17T03:51:27.686Z,0
2018-04-17T03:52:27.688Z,0
2018-04-17T03:53:27.409Z,0
2018-04-17T03:54:27.405Z,0
2018-04-17T03:55:27.395Z,5
2018-04-17T03:56:27.133Z,5
2018-04-17T03:57:27.628Z,5
2018-04-17T03:58:27.365Z,5
2018-04-17T03:59:27.610Z,5
2018-04-17T04:00:27.596Z,5
2018-04-17T04:01:27.595Z,10
2018-04-17T04:02:27.327Z,10
2018-04-17T04:03:27.584Z,10
2018-04-17T04:04:27.646Z,10
2018-04-17T04:05:27.550Z,10
2018-04-17T04:06:27.037Z,10
2018-04-17T04:07:27.537Z,15
2018-04-17T04:08:27.525Z,15
2018-04-17T04:09:27.517Z,15
2018-04-17T04:10:27.520Z,15
2018-04-17T04:11:27.499Z,15
2018-04-17T04:12:26.983Z,20
2018-04-17T04:13:27.256Z,20
2018-04-17T04:14:26.966Z,20
2018-04-17T04:15:27.463Z,20
2018-04-17T04:16:27.447Z,25
2018-04-17T04:17:27.190Z,25
2018-04-17T04:18:26.673Z,25
2018-04-17T04:19:26.922Z,30
2018-04-17T04:20:27.419Z,30
2018-04-17T04:21:27.154Z,30
2018-04-17T04:22:27.400Z,35
2018-04-17T04:23:27.390Z,35
2018-04-17T04:24:26.865Z,35
2018-04-17T04:25:27.374Z,40
2018-04-17T04:26:27.103Z,40
2018-04-17T04:27:27.195Z,45
2018-04-17T04:28:27.086Z,45
2018-04-17T04:29:26.821Z,50
2018-04-17T04:30:27.330Z,55
2018-04-17T04:31:27.060Z,55
2018-04-17T04:32:27.344Z,60
2018-04-17T04:33:27.044Z,65
2018-04-17T04:34:27.310Z,70
2018-04-17T04:35:26.515Z,75
2018-04-17T04:36:27.280Z,80
2018-04-17T04:37:27.251Z,80
2018-04-17T04:38:27.252Z,85
2018-04-17T04:39:27.252Z,90
2018-04-17T04:40:26.973Z,90
2018-04-17T04:41:27.216Z,95
2018-04-17T04:42:27.211Z,100
2018-04-17T04:43:26.952Z,105
2018-04-17T04:44:26.951Z,105
2018-04-17T04:45:27.182Z,110
2018-04-17T04:46:27.174Z,115
2018-04-17T04:47:27.171Z,120
2018-04-17T04:48:26.907Z,125
2018-04-17T04:49:27.152Z,130
2018-04-17T04:50:26.889Z,135
2018-04-17T04:51:27.139Z,140
2018-04-17T04:52:26.873Z,145
2018-04-17T04:53:27.118Z,145
2018-04-17T04:54:26.870Z,155
2018-04-17T04:55:27.102Z,160
2018-04-17T04:56:27.097Z,165
2018-04-17T04:57:27.104Z,165
2018-04-17T04:58:27.092Z,170
2018-04-17T04:59:26.818Z,175
2018-04-17T05:00:26.825Z,175
2018-04-17T05:01:26.865Z,180
2018-04-17T05:02:27.052Z,180
2018-04-17T05:03:27.045Z,185
2018-04-17T05:04:26.786Z,195
2018-04-17T05:05:26.769Z,200
2018-04-17T05:06:27.024Z,200
2018-04-17T05:07:27.010Z,205
2018-04-17T05:08:27.016Z,210
2018-04-17T05:09:27.009Z,220
2018-04-17T05:10:26.997Z,220
2018-04-17T05:11:26.995Z,225
2018-04-17T05:12:26.989Z,235
2018-04-17T05:13:27.004Z,240
2018-04-17T05:14:26.465Z,255
2018-04-17T05:15:26.738Z,260
2018-04-17T05:16:26.964Z,265
2018-04-17T05:17:26.949Z,275
2018-04-17T05:18:27.008Z,285
2018-04-17T05:19:26.942Z,295
2018-04-17T05:20:26.938Z,310
2018-04-17T05:21:26.944Z,320
2018-04-17T05:22:26.928Z,315
2018-04-17T05:23:26.933Z,325
2018-04-17T05:24:26.412Z,330
2018-04-17T05:25:26.911Z,340
2018-04-17T05:26:26.930Z,355
2018-04-17T05:27:26.648Z,360
2018-04-17T05:28:26.648Z,370
2018-04-17T05:29:26.896Z,380
2018-04-17T05:30:26.902Z,385
2018-04-17T05:31:26.887Z,385
2018-04-17T05:32:26.638Z,395
2018-04-17T05:33:26.842Z,390
2018-04-17T05:34:26.745Z,380
2018-04-17T05:35:26.372Z,375
2018-04-17T05:36:26.969Z,355
2018-04-17T05:37:26.925Z,375
2018-04-17T05:38:26.870Z,390
2018-04-17T05:39:26.871Z,370
2018-04-17T05:40:26.877Z,340
2018-04-17T05:41:26.868Z,355
2018-04-17T05:42:26.876Z,375
2018-04-17T05:43:26.966Z,410
2018-04-17T05:44:26.354Z,415
2018-04-17T05:45:26.856Z,430
2018-04-17T05:46:26.848Z,425
2018-04-17T05:47:26.886Z,440
2018-04-17T05:48:26.886Z,445
2018-04-17T05:49:26.601Z,455
2018-04-17T05:50:26.958Z,465
2018-04-17T05:51:26.882Z,480
2018-04-17T05:52:26.603Z,500
2018-04-17T05:53:26.621Z,505
2018-04-17T05:54:26.603Z,510
2018-04-17T05:55:26.846Z,515
2018-04-17T05:56:26.837Z,530
2018-04-17T05:57:26.595Z,540
2018-04-17T05:58:26.849Z,555
2018-04-17T05:59:26.602Z,565
2018-04-17T06:00:26.587Z,565
2018-04-17T06:01:26.610Z,580
2018-04-17T06:02:26.599Z,585
2018-04-17T06:03:26.384Z,595
2018-04-17T06:04:26.609Z,600
2018-04-17T06:05:26.610Z,615
2018-04-17T06:06:26.625Z,620
2018-04-17T06:07:26.866Z,625
2018-04-17T06:08:26.848Z,615
2018-04-17T06:09:26.362Z,625
2018-04-17T06:10:26.603Z,640
2018-04-17T06:11:26.349Z,635
2018-04-17T06:12:26.656Z,630
2018-04-17T06:13:26.622Z,640
2018-04-17T06:14:26.358Z,665
2018-04-17T06:15:26.632Z,665
2018-04-17T06:16:26.623Z,695
2018-04-17T06:17:26.127Z,705
2018-04-17T06:18:27.111Z,740
2018-04-17T06:19:26.627Z,745
2018-04-17T06:20:26.897Z,750
2018-04-17T06:21:26.889Z,760
2018-04-17T06:22:26.890Z,770
2018-04-17T06:23:27.109Z,775
2018-04-17T06:24:26.924Z,780
2018-04-17T06:25:26.895Z,780
2018-04-17T06:26:26.668Z,790
2018-04-17T06:27:26.670Z,780
2018-04-17T06:28:26.921Z,795
2018-04-17T06:29:26.682Z,810
2018-04-17T06:30:26.415Z,815
2018-04-17T06:31:26.953Z,810
2018-04-17T06:32:26.701Z,790
2018-04-17T06:33:26.956Z,795
2018-04-17T06:34:26.695Z,800
2018-04-17T06:35:26.953Z,820
2018-04-17T06:36:26.696Z,840
2018-04-17T06:37:26.489Z,825
2018-04-17T06:38:26.937Z,825
2018-04-17T06:39:26.967Z,880
2018-04-17T06:40:26.997Z,890
2018-04-17T06:41:26.594Z,870
2018-04-17T06:42:26.989Z,915
2018-04-17T06:43:26.735Z,915
2018-04-17T06:44:26.747Z,915
2018-04-17T06:45:27.011Z,925
2018-04-17T06:46:26.757Z,935
2018-04-17T06:47:27.068Z,950
2018-04-17T06:48:27.031Z,950
2018-04-17T06:49:27.434Z,950
2018-04-17T06:50:26.783Z,930
2018-04-17T06:51:27.052Z,980
2018-04-17T06:52:26.847Z,990
2018-04-17T06:53:27.061Z,940
2018-04-17T06:54:26.810Z,1020
2018-04-17T06:55:27.077Z,1020
2018-04-17T06:56:26.334Z,1085
2018-04-17T06:57:27.092Z,1050
2018-04-17T06:58:27.091Z,1060
2018-04-17T06:59:27.108Z,1120
2018-04-17T07:00:26.959Z,1080
2018-04-17T07:01:26.896Z,1085
2018-04-17T07:02:26.908Z,1060
2018-04-17T07:03:27.017Z,1090
2018-04-17T07:04:27.160Z,1050
2018-04-17T07:05:27.021Z,1085
2018-04-17T07:06:27.191Z,1060
2018-04-17T07:07:26.956Z,1055
2018-04-17T07:08:26.987Z,1030
2018-04-17T07:09:26.692Z,1035
2018-04-17T07:10:26.974Z,975
2018-04-17T07:11:27.213Z,1015
2018-04-17T07:12:26.969Z,950
2018-04-17T07:13:27.240Z,995
2018-04-17T07:14:27.292Z,1015
2018-04-17T07:15:27.008Z,1015
2018-04-17T07:16:27.013Z,1025
2018-04-17T07:17:27.060Z,1040
2018-04-17T07:18:27.286Z,1060
2018-04-17T07:19:27.031Z,1065
2018-04-17T07:20:27.041Z,1075
2018-04-17T07:21:27.308Z,1075
2018-04-17T07:22:27.068Z,1055
2018-04-17T07:23:27.333Z,1070
2018-04-17T07:24:27.068Z,1125
2018-04-17T07:25:27.356Z,1160
2018-04-17T07:26:27.363Z,1100
2018-04-17T07:27:27.375Z,1150
2018-04-17T07:28:27.113Z,1110
2018-04-17T07:29:27.182Z,1140
2018-04-17T07:30:27.381Z,1100
2018-04-17T07:31:27.499Z,1100
2018-04-17T07:32:27.400Z,1230
2018-04-17T07:33:27.490Z,1300
2018-04-17T07:34:27.439Z,1350
2018-04-17T07:35:27.470Z,1340
2018-04-17T07:36:27.187Z,1420
2018-04-17T07:37:26.947Z,1465
2018-04-17T07:38:27.464Z,1470
2018-04-17T07:39:27.465Z,1415
2018-04-17T07:40:27.920Z,1505
2018-04-17T07:41:27.352Z,1500
2018-04-17T07:42:27.599Z,1470
2018-04-17T07:43:27.557Z,1240
2018-04-17T07:44:27.561Z,1400
2018-04-17T07:45:27.558Z,1555
2018-04-17T07:46:27.531Z,1475
2018-04-17T07:47:27.714Z,1390
2018-04-17T07:48:27.325Z,1300
2018-04-17T07:49:27.323Z,1600
2018-04-17T07:50:27.338Z,1595
2018-04-17T07:51:27.352Z,1590
2018-04-17T07:52:27.604Z,1615
2018-04-17T07:53:27.622Z,1560
2018-04-17T07:54:27.660Z,1425
2018-04-17T07:55:27.444Z,740
2018-04-17T07:56:27.636Z,625
2018-04-17T07:57:27.433Z,630
2018-04-17T07:58:27.434Z,815
2018-04-17T07:59:27.423Z,1290
2018-04-17T08:00:27.441Z,1220
2018-04-17T08:01:27.753Z,815
2018-04-17T08:02:28.335Z,920
2018-04-17T08:03:27.736Z,1330
2018-04-17T08:04:27.738Z,1275
2018-04-17T08:05:27.482Z,1300
2018-04-17T08:06:27.480Z,1340
2018-04-17T08:07:26.994Z,1315
2018-04-17T08:08:27.528Z,1380
2018-04-17T08:09:27.277Z,1295
2018-04-17T08:10:27.545Z,1210
2018-04-17T08:11:27.535Z,1235
2018-04-17T08:12:27.305Z,1135
2018-04-17T08:13:27.552Z,1325
2018-04-17T08:14:27.333Z,1355
2018-04-17T08:15:27.832Z,1400
2018-04-17T08:16:28.248Z,1310
2018-04-17T08:17:27.927Z,1400
2018-04-17T08:18:27.874Z,1375
2018-04-17T08:19:27.875Z,1385
2018-04-17T08:20:27.660Z,1255
2018-04-17T08:21:27.621Z,1230
2018-04-17T08:22:27.634Z,1380
2018-04-17T08:23:28.102Z,1360
2018-04-17T08:24:27.934Z,1365
2018-04-17T08:25:27.930Z,1340
2018-04-17T08:26:27.935Z,1070
2018-04-17T08:27:27.991Z,670
2018-04-17T08:28:27.210Z,600
2018-04-17T08:29:28.055Z,580
2018-04-17T08:30:27.972Z,580
2018-04-17T08:31:28.028Z,575
2018-04-17T08:32:27.732Z,565
2018-04-17T08:33:27.998Z,550
2018-04-17T08:34:27.765Z,545
2018-04-17T08:35:28.020Z,535
2018-04-17T08:36:28.078Z,535
2018-04-17T08:37:28.091Z,530
2018-04-17T08:38:28.051Z,515
2018-04-17T08:39:27.780Z,510
2018-04-17T08:40:27.799Z,505
2018-04-17T08:41:28.054Z,500
2018-04-17T08:42:28.072Z,500
2018-04-17T08:43:28.062Z,505
2018-04-17T08:44:27.844Z,510
2018-04-17T08:46:30.572Z,495
2018-04-17T08:47:27.593Z,490
2018-04-17T08:50:27.625Z,475
2018-04-17T08:51:29.335Z,475
2018-04-17T08:52:29.132Z,460
2018-04-17T08:53:27.625Z,455
2018-04-17T08:54:27.642Z,455
2018-04-17T08:55:28.099Z,445
2018-04-17T08:56:27.601Z,450
2018-04-17T08:57:28.179Z,445
2018-04-17T08:58:27.853Z,445
2018-04-17T08:59:27.948Z,440
2018-04-17T09:00:28.373Z,450
2018-04-17T09:01:28.127Z,450
2018-04-17T09:02:27.938Z,445
2018-04-17T09:03:28.409Z,440
2018-04-17T09:04:28.348Z,440
2018-04-17T09:05:28.013Z,440
2018-04-17T09:06:28.156Z,440
2018-04-17T09:07:28.139Z,440
2018-04-17T09:08:28.140Z,430
2018-04-17T09:09:27.615Z,415
2018-04-17T09:10:28.124Z,405
2018-04-17T09:11:27.639Z,405
2018-04-17T09:12:27.615Z,395
2018-04-17T09:13:27.881Z,390
2018-04-17T09:14:27.615Z,385
2018-04-17T09:15:28.121Z,380
2018-04-17T09:16:28.124Z,380
2018-04-17T09:17:27.874Z,375
2018-04-17T09:18:27.648Z,375
2018-04-17T09:19:27.872Z,375
2018-04-17T09:20:28.146Z,370
2018-04-17T09:21:27.897Z,365
2018-04-17T09:22:28.159Z,360
2018-04-17T09:23:28.233Z,360
2018-04-17T09:24:28.115Z,355
2018-04-17T09:25:27.901Z,355
2018-04-17T09:26:28.152Z,355
2018-04-17T09:27:27.672Z,355
2018-04-17T09:28:28.240Z,350
2018-04-17T09:29:28.079Z,350
2018-04-17T09:30:27.892Z,350
2018-04-17T09:31:28.187Z,345
2018-04-17T09:32:28.369Z,345
2018-04-17T09:34:28.028Z,340
2018-04-17T09:35:28.036Z,340
2018-04-17T09:36:28.064Z,340
2018-04-17T09:37:28.300Z,340
2018-04-17T09:38:28.309Z,335
2018-04-17T09:39:28.761Z,335
2018-04-17T09:40:28.458Z,335
2018-04-17T09:41:27.977Z,330
2018-04-17T09:42:28.086Z,330
2018-04-17T09:43:27.906Z,325
2018-04-17T09:44:28.288Z,325
2018-04-17T09:45:28.156Z,325
2018-04-17T09:46:27.935Z,320
2018-04-17T09:47:27.931Z,320
2018-04-17T09:48:27.610Z,320
2018-04-17T09:49:28.203Z,320
2018-04-17T09:50:27.996Z,315
2018-04-17T09:51:28.197Z,315
2018-04-17T09:52:27.367Z,315
2018-04-17T09:53:27.892Z,315
2018-04-17T09:54:27.396Z,310
2018-04-17T09:55:27.847Z,310
2018-04-17T09:56:28.101Z,310
2018-04-17T09:57:28.093Z,305
2018-04-17T09:58:28.101Z,305
2018-04-17T09:59:27.878Z,305
2018-04-17T10:00:28.105Z,305
2018-04-17T10:01:27.899Z,300
2018-04-17T10:02:28.092Z,300
2018-04-17T10:03:27.576Z,300
2018-04-17T10:04:28.094Z,300
2018-04-17T10:05:28.118Z,300
2018-04-17T10:06:28.089Z,300
2018-04-17T10:07:28.080Z,300
2018-04-17T10:08:27.844Z,300
2018-04-17T10:09:28.097Z,300
2018-04-17T10:10:27.844Z,295
2018-04-17T10:11:28.165Z,295
2018-04-17T10:12:27.301Z,295
2018-04-17T10:13:27.565Z,295
2018-04-17T10:14:27.845Z,295
2018-04-17T10:15:28.105Z,290
2018-04-17T10:16:27.305Z,290
2018-04-17T10:17:28.231Z,290
2018-04-17T10:18:28.095Z,290
2018-04-17T10:19:27.793Z,285
2018-04-17T10:20:28.125Z,285
2018-04-17T10:21:27.804Z,285
2018-04-17T10:22:28.078Z,285
2018-04-17T10:23:27.841Z,280
2018-04-17T10:24:28.068Z,280
2018-04-17T10:25:28.042Z,280
2018-04-17T10:26:28.094Z,280
2018-04-17T10:27:27.838Z,280
2018-04-17T10:28:27.900Z,280
2018-04-17T10:29:27.834Z,280
2018-04-17T10:30:28.282Z,280
2018-04-17T10:31:27.865Z,280
2018-04-17T10:32:28.067Z,280
2018-04-17T10:33:28.046Z,280
2018-04-17T10:34:28.031Z,275
2018-04-17T10:35:27.528Z,275
2018-04-17T10:36:27.560Z,275
2018-04-17T10:37:28.287Z,275
2018-04-17T10:38:28.073Z,275
2018-04-17T10:39:28.128Z,275
2018-04-17T10:40:27.831Z,275
2018-04-17T10:41:27.593Z,275
2018-04-17T10:42:27.809Z,280
2018-04-17T10:43:27.791Z,280
2018-04-17T10:44:28.013Z,280
2018-04-17T10:45:28.000Z,280
2018-04-17T10:46:28.036Z,275
2018-04-17T10:47:27.800Z,275
2018-04-17T10:48:27.757Z,270
2018-04-17T10:49:27.750Z,270
2018-04-17T10:50:27.991Z,270
2018-04-17T10:51:28.017Z,275
2018-04-17T10:52:27.735Z,275
2018-04-17T10:53:28.044Z,285
2018-04-17T10:54:27.752Z,295
2018-04-17T10:55:27.504Z,290
2018-04-17T10:56:27.859Z,285
2018-04-17T10:57:27.774Z,285
2018-04-17T10:58:27.754Z,270
2018-04-17T10:59:28.094Z,270
2018-04-17T11:00:27.731Z,270
2018-04-17T11:01:28.000Z,270
2018-04-17T11:02:27.977Z,275
2018-04-17T11:03:27.633Z,270
2018-04-17T11:04:27.998Z,265
2018-04-17T11:05:28.005Z,255
2018-04-17T11:06:28.003Z,255
2018-04-17T11:07:27.999Z,265
2018-04-17T11:08:28.006Z,260
2018-04-17T11:09:27.988Z,270
2018-04-17T11:10:28.237Z,285
2018-04-17T11:11:27.952Z,285
2018-04-17T11:12:27.700Z,290
2018-04-17T11:13:27.722Z,300
2018-04-17T11:14:28.003Z,310
2018-04-17T11:15:27.498Z,305
2018-04-17T11:16:28.030Z,295
2018-04-17T11:17:27.745Z,295
2018-04-17T11:18:27.735Z,300
2018-04-17T11:19:28.028Z,285
2018-04-17T11:20:27.705Z,285
2018-04-17T11:21:27.200Z,295
2018-04-17T11:22:27.949Z,315
2018-04-17T11:23:27.725Z,360
2018-04-17T11:24:27.713Z,350
2018-04-17T11:25:27.948Z,375
2018-04-17T11:26:27.698Z,390
2018-04-17T11:27:27.953Z,365
2018-04-17T11:28:28.204Z,315
2018-04-17T11:29:27.959Z,275
2018-04-17T11:30:27.974Z,265
2018-04-17T11:31:27.937Z,275
2018-04-17T11:32:27.924Z,295
2018-04-17T11:33:27.421Z,310
2018-04-17T11:34:27.734Z,305
2018-04-17T11:35:27.933Z,295
2018-04-17T11:36:27.421Z,285
2018-04-17T11:37:28.069Z,295
2018-04-17T11:38:27.919Z,315
2018-04-17T11:39:27.918Z,330
2018-04-17T11:40:27.924Z,350
2018-04-17T11:41:27.764Z,360
2018-04-17T11:42:27.700Z,390
2018-04-17T11:43:27.730Z,385
2018-04-17T11:44:27.988Z,395
2018-04-17T11:45:27.928Z,405
2018-04-17T11:46:27.861Z,405
2018-04-17T11:47:27.902Z,410
2018-04-17T11:48:27.949Z,430
2018-04-17T11:49:27.647Z,450
2018-04-17T11:50:27.717Z,470
2018-04-17T11:51:27.656Z,465
2018-04-17T11:52:27.402Z,460
2018-04-17T11:53:27.683Z,460
2018-04-17T11:54:27.642Z,465
2018-04-17T11:55:27.397Z,460
2018-04-17T11:56:27.661Z,455
2018-04-17T11:57:27.646Z,445
2018-04-17T11:58:27.382Z,425
2018-04-17T11:59:27.881Z,400
2018-04-17T12:00:27.889Z,380
2018-04-17T12:01:27.896Z,370
2018-04-17T12:02:28.075Z,365
2018-04-17T12:03:28.140Z,365
2018-04-17T12:04:27.923Z,370
2018-04-17T12:05:27.623Z,360
2018-04-17T12:06:27.899Z,355
2018-04-17T12:07:27.377Z,330
2018-04-17T12:08:27.680Z,320
2018-04-17T12:09:27.888Z,315
2018-04-17T12:10:27.638Z,335
2018-04-17T12:11:27.875Z,355
2018-04-17T12:12:27.898Z,375
2018-04-17T12:13:27.645Z,410
2018-04-17T12:14:27.641Z,430
2018-04-17T12:15:27.874Z,440
2018-04-17T12:16:27.878Z,455
2018-04-17T12:17:27.882Z,450
2018-04-17T12:18:27.897Z,450
2018-04-17T12:19:27.938Z,450
2018-04-17T12:20:28.057Z,450
2018-04-17T12:21:27.384Z,450
2018-04-17T12:22:27.398Z,430
2018-04-17T12:23:27.376Z,420
2018-04-17T12:24:27.932Z,415
2018-04-17T12:25:27.919Z,400
2018-04-17T12:26:27.364Z,385
2018-04-17T12:27:27.608Z,390
2018-04-17T12:28:27.424Z,390
2018-04-17T12:29:27.915Z,390
2018-04-17T12:30:28.137Z,380
2018-04-17T12:31:27.964Z,365
2018-04-17T12:32:27.882Z,345
2018-04-17T12:33:27.651Z,325
2018-04-17T12:34:27.904Z,320
2018-04-17T12:35:27.669Z,320
2018-04-17T12:36:27.427Z,295
2018-04-17T12:37:27.451Z,295
2018-04-17T12:38:27.668Z,295
2018-04-17T12:39:27.194Z,280
2018-04-17T12:40:27.686Z,280
2018-04-17T12:41:27.915Z,280
2018-04-17T12:42:27.694Z,280
2018-04-17T12:43:27.933Z,260
2018-04-17T12:44:27.678Z,255
2018-04-17T12:45:27.676Z,245
2018-04-17T12:46:27.631Z,235
2018-04-17T12:47:27.898Z,235
2018-04-17T12:48:27.890Z,235
2018-04-17T12:49:27.945Z,250
2018-04-17T12:50:27.671Z,255
2018-04-17T12:51:27.739Z,260
2018-04-17T12:52:27.689Z,255
2018-04-17T12:53:27.986Z,255
2018-04-17T12:54:27.953Z,240
2018-04-17T12:55:27.681Z,230
2018-04-17T12:56:28.135Z,220
2018-04-17T12:57:27.910Z,225
2018-04-17T12:58:27.891Z,240
2018-04-17T12:59:27.895Z,245
2018-04-17T13:00:27.366Z,255
2018-04-17T13:01:28.137Z,255
2018-04-17T13:02:27.894Z,240
2018-04-17T13:03:27.938Z,235
2018-04-17T13:04:27.123Z,235
2018-04-17T13:05:27.878Z,240
2018-04-17T13:06:27.633Z,225
2018-04-17T13:07:27.953Z,220
2018-04-17T13:08:27.373Z,220
2018-04-17T13:09:27.969Z,225
2018-04-17T13:10:27.911Z,225
2018-04-17T13:11:27.879Z,220
2018-04-17T13:12:27.612Z,220
2018-04-17T13:13:27.865Z,215
2018-04-17T13:14:27.674Z,210
2018-04-17T13:15:28.188Z,210
2018-04-17T13:16:27.656Z,210
2018-04-17T13:17:27.928Z,210
2018-04-17T13:18:27.666Z,210
2018-04-17T13:19:27.908Z,215
2018-04-17T13:20:27.697Z,215
2018-04-17T13:21:27.104Z,230
2018-04-17T13:22:27.402Z,250
2018-04-17T13:23:27.360Z,260
2018-04-17T13:24:27.917Z,260
2018-04-17T13:25:27.950Z,265
2018-04-17T13:26:27.915Z,265
2018-04-17T13:27:27.684Z,265
2018-04-17T13:28:27.922Z,265
2018-04-17T13:29:27.701Z,250
2018-04-17T13:30:27.538Z,245
2018-04-17T13:31:27.849Z,230
2018-04-17T13:32:28.105Z,225
2018-04-17T13:33:27.842Z,215
2018-04-17T13:34:27.852Z,215
2018-04-17T13:35:27.590Z,220
2018-04-17T13:36:28.073Z,220
2018-04-17T13:37:27.594Z,220
2018-04-17T13:38:27.580Z,225
2018-04-17T13:39:27.608Z,225
2018-04-17T13:40:27.384Z,235
2018-04-17T13:41:27.930Z,240
2018-04-17T13:42:27.538Z,240
2018-04-17T13:43:27.602Z,235
2018-04-17T13:44:27.831Z,250
2018-04-17T13:45:28.080Z,255
2018-04-17T13:46:27.844Z,250
2018-04-17T13:47:27.581Z,250
2018-04-17T13:48:27.566Z,265
2018-04-17T13:49:27.563Z,280
2018-04-17T13:50:27.815Z,285
2018-04-17T13:51:27.310Z,285
2018-04-17T13:52:27.548Z,270
2018-04-17T13:53:27.838Z,255
2018-04-17T13:54:27.592Z,250
2018-04-17T13:55:27.308Z,250
2018-04-17T13:56:27.811Z,250
2018-04-17T13:57:27.792Z,250
2018-04-17T13:58:27.798Z,250
2018-04-17T13:59:27.302Z,255
2018-04-17T14:00:27.813Z,255
2018-04-17T14:01:27.548Z,260
2018-04-17T14:02:28.114Z,255
2018-04-17T14:03:27.793Z,255
2018-04-17T14:04:27.798Z,250
2018-04-17T14:05:27.786Z,240